createdAt,value
2022-10-19T00:00:39.997Z,43.80
2022-10-19T00:01:41.641Z,44.08
2022-10-19T00:02:43.211Z,43.87
2022-10-19T00:03:46.837Z,43.95
2022-10-19T00:04:48.437Z,43.79
2022-10-19T00:05:49.975Z,44.02
2022-10-19T00:06:51.486Z,44.11
2022-10-19T00:07:54.560Z,43.84
2022-10-19T00:09:01.386Z,43.76
2022-10-19T00:10:04.447Z,44.16
2022-10-19T00:11:06.094Z,43.98
2022-10-19T00:12:07.670Z,44.02
2022-10-19T00:13:09.213Z,44.11
2022-10-19T00:14:20.016Z,43.75
2022-10-19T00:15:21.554Z,44.08
2022-10-19T00:16:24.374Z,44.08
2022-10-19T00:17:25.917Z,43.76
2022-10-19T00:18:27.588Z,43.71
2022-10-19T00:19:29.336Z,44.01
2022-10-19T00:20:30.869Z,43.82
2022-10-19T00:21:33.328Z,43.87
2022-10-19T00:22:35.021Z,43.82
2022-10-19T00:23:36.856Z,44.19
2022-10-19T00:24:38.444Z,44.17
2022-10-19T00:25:39.949Z,44.12
2022-10-19T00:26:41.972Z,44.11
2022-10-19T00:27:43.544Z,43.94
2022-10-19T00:28:45.507Z,43.88
2022-10-19T00:29:47.088Z,43.76
2022-10-19T00:31:51.994Z,43.98
2022-10-19T00:32:53.541Z,44.07
2022-10-19T00:33:56.869Z,43.66
2022-10-19T00:34:58.458Z,44.15
2022-10-19T00:36:00.323Z,44.11
2022-10-19T00:37:01.943Z,43.83
2022-10-19T00:38:03.459Z,43.84
2022-10-19T00:39:07.662Z,43.86
2022-10-19T00:40:09.865Z,43.84
2022-10-19T00:41:11.743Z,43.77
2022-10-19T00:42:13.285Z,43.96
2022-10-19T00:43:16.461Z,44.13
2022-10-19T00:44:17.991Z,44.01
2022-10-19T00:45:19.549Z,44.04
2022-10-19T00:46:22.026Z,44.02
2022-10-19T00:47:24.614Z,43.61
2022-10-19T00:48:30.529Z,43.95
2022-10-19T00:49:35.859Z,43.71
2022-10-19T00:50:37.916Z,44.00
2022-10-19T00:51:47.212Z,43.96
2022-10-19T00:52:48.831Z,43.67
2022-10-19T00:53:50.874Z,43.68
2022-10-19T00:54:55.316Z,43.73
2022-10-19T00:55:58.539Z,43.96
2022-10-19T00:57:00.518Z,43.68
2022-10-19T00:58:03.165Z,44.03
2022-10-19T00:59:05.922Z,43.78
2022-10-19T01:00:09.029Z,43.96
2022-10-19T01:01:16.410Z,43.79
2022-10-19T01:02:18.129Z,43.85
2022-10-19T01:03:20.816Z,43.97
2022-10-19T01:04:24.571Z,43.85
2022-10-19T01:05:27.575Z,43.70
2022-10-19T01:06:29.522Z,43.99
2022-10-19T01:07:31.236Z,43.86
2022-10-19T01:08:32.939Z,44.00
2022-10-19T01:09:35.051Z,43.75
2022-10-19T01:10:57.326Z,43.75
2022-10-19T01:12:04.532Z,43.99
2022-10-19T01:13:12.079Z,43.95
2022-10-19T01:14:14.561Z,43.88
2022-10-19T01:17:20.641Z,43.65
2022-10-19T01:18:49.700Z,43.76
2022-10-19T01:20:07.972Z,43.71
2022-10-19T01:21:09.502Z,43.84
2022-10-19T01:22:41.543Z,43.92
2022-10-19T01:24:02.842Z,43.85
2022-10-19T01:25:41.434Z,43.62
2022-10-19T01:27:10.781Z,44.00
2022-10-19T01:28:18.736Z,43.72
2022-10-19T01:29:41.868Z,43.58
2022-10-19T01:30:58.526Z,43.83
2022-10-19T01:32:19.348Z,43.61
2022-10-19T01:33:35.908Z,43.54
2022-10-19T01:34:55.906Z,43.56
2022-10-19T01:36:16.041Z,43.73
2022-10-19T01:37:20.879Z,43.93
2022-10-19T01:38:43.096Z,43.56
2022-10-19T01:39:59.085Z,43.54
2022-10-19T01:41:18.156Z,43.60
2022-10-19T01:42:36.857Z,43.76
2022-10-19T01:44:01.366Z,43.79
2022-10-19T01:45:08.012Z,43.75
2022-10-19T01:46:18.176Z,43.97
2022-10-19T01:47:26.702Z,43.97
2022-10-19T01:48:35.500Z,44.01
2022-10-19T01:49:54.214Z,43.67
2022-10-19T01:51:17.064Z,43.70
2022-10-19T01:52:20.975Z,43.63
2022-10-19T01:53:24.505Z,44.07
2022-10-19T01:54:30.928Z,43.96
2022-10-19T01:55:34.120Z,43.72
2022-10-19T01:56:37.765Z,43.91
2022-10-19T01:57:46.154Z,43.68
2022-10-19T01:58:49.555Z,43.63
2022-10-19T01:59:52.621Z,43.82
2022-10-19T02:00:57.596Z,43.84
2022-10-19T02:01:59.243Z,44.08
2022-10-19T02:03:01.708Z,43.69
2022-10-19T02:04:04.213Z,43.81
2022-10-19T02:05:07.590Z,43.67
2022-10-19T02:06:11.532Z,43.72
2022-10-19T02:07:13.344Z,43.67
2022-10-19T02:08:20.573Z,43.87
2022-10-19T02:09:22.363Z,43.69
2022-10-19T02:10:25.793Z,43.96
2022-10-19T02:11:28.612Z,43.66
2022-10-19T02:12:33.750Z,43.79
2022-10-19T02:13:37.526Z,43.68
2022-10-19T02:14:44.328Z,43.70
2022-10-19T02:15:49.905Z,43.83
2022-10-19T02:16:59.306Z,43.76
2022-10-19T02:18:02.514Z,43.88
2022-10-19T02:19:08.532Z,43.69
2022-10-19T02:20:10.162Z,43.86
2022-10-19T02:21:11.844Z,43.75
2022-10-19T02:22:13.801Z,44.01
2022-10-19T02:23:20.695Z,43.99
2022-10-19T02:24:22.372Z,43.89
2022-10-19T02:25:25.213Z,43.56
2022-10-19T02:26:27.283Z,43.93
2022-10-19T02:27:29.122Z,43.60
2022-10-19T02:28:31.308Z,43.69
2022-10-19T02:29:34.428Z,43.62
2022-10-19T02:30:35.999Z,43.89
2022-10-19T02:31:38.443Z,43.68
2022-10-19T02:32:40.572Z,43.70
2022-10-19T02:33:42.293Z,44.02
2022-10-19T02:34:43.935Z,43.62
2022-10-19T02:35:46.131Z,43.93
2022-10-19T02:36:47.732Z,43.90
2022-10-19T02:37:49.483Z,43.78
2022-10-19T02:38:51.129Z,43.96
2022-10-19T02:39:52.769Z,43.94
2022-10-19T02:41:05.013Z,43.92
2022-10-19T02:42:17.964Z,43.66
2022-10-19T02:43:23.111Z,43.92
2022-10-19T02:44:33.962Z,43.66
2022-10-19T02:45:40.243Z,43.60
2022-10-19T02:46:45.496Z,43.51
2022-10-19T02:47:54.754Z,43.65
2022-10-19T02:48:58.058Z,43.90
2022-10-19T02:50:00.050Z,43.63
2022-10-19T02:51:01.619Z,43.95
2022-10-19T02:52:08.059Z,43.79
2022-10-19T02:53:09.663Z,44.03
2022-10-19T02:54:11.167Z,43.74
2022-10-19T02:55:12.707Z,43.97
2022-10-19T02:56:14.231Z,43.75
2022-10-19T02:57:20.087Z,43.94
2022-10-19T02:58:21.862Z,43.76
2022-10-19T02:59:23.999Z,43.97
2022-10-19T03:00:25.546Z,43.90
2022-10-19T03:01:27.392Z,43.75
2022-10-19T03:02:28.958Z,43.92
2022-10-19T03:03:30.521Z,43.67
2022-10-19T03:04:32.096Z,43.63
2022-10-19T03:05:33.624Z,43.82
2022-10-19T03:06:35.169Z,43.73
2022-10-19T03:07:37.044Z,43.72
2022-10-19T03:08:38.942Z,44.06
2022-10-19T03:09:41.272Z,43.68
2022-10-19T03:10:42.801Z,43.82
2022-10-19T03:11:44.315Z,43.67
2022-10-19T03:12:45.883Z,43.98
2022-10-19T03:14:53.940Z,43.73
2022-10-19T03:15:55.480Z,43.84
2022-10-19T03:16:57.002Z,43.68
2022-10-19T03:17:58.553Z,43.72
2022-10-19T03:19:00.089Z,44.02
2022-10-19T03:20:01.607Z,43.71
2022-10-19T03:21:05.933Z,44.06
2022-10-19T03:22:07.528Z,43.78
2022-10-19T03:23:09.063Z,43.68
2022-10-19T03:24:10.606Z,43.70
2022-10-19T03:25:12.117Z,43.73
2022-10-19T03:26:16.114Z,43.95
2022-10-19T03:27:17.637Z,43.94
2022-10-19T03:28:19.157Z,43.66
2022-10-19T03:29:20.671Z,43.65
2022-10-19T03:30:22.217Z,43.83
2022-10-19T03:31:23.831Z,44.04
2022-10-19T03:32:25.341Z,44.03
2022-10-19T03:33:26.923Z,43.68
2022-10-19T03:34:28.499Z,43.98
2022-10-19T03:35:30.044Z,43.89
2022-10-19T03:36:34.010Z,44.03
2022-10-19T03:37:35.871Z,43.78
2022-10-19T03:38:37.604Z,43.93
2022-10-19T03:39:39.151Z,43.95
2022-10-19T03:40:40.725Z,43.71
2022-10-19T03:41:42.418Z,43.66
2022-10-19T03:42:44.173Z,43.64
2022-10-19T03:43:45.837Z,43.66
2022-10-19T03:44:47.359Z,43.63
2022-10-19T03:45:48.894Z,43.99
2022-10-19T03:46:50.413Z,43.80
2022-10-19T03:47:52.593Z,44.07
2022-10-19T03:48:54.806Z,43.96
2022-10-19T03:49:56.329Z,43.83
2022-10-19T03:51:02.209Z,43.80
2022-10-19T03:52:04.004Z,44.04
2022-10-19T03:53:05.536Z,43.99
2022-10-19T03:54:12.298Z,43.98
2022-10-19T03:55:13.848Z,43.96
2022-10-19T03:56:20.018Z,43.61
2022-10-19T03:57:21.682Z,43.69
2022-10-19T03:58:23.193Z,43.94
2022-10-19T03:59:24.887Z,43.66
2022-10-19T04:00:26.476Z,43.96
2022-10-19T04:01:34.241Z,43.69
2022-10-19T04:02:35.797Z,43.73
2022-10-19T04:03:37.627Z,43.66
2022-10-19T04:04:39.175Z,43.67
2022-10-19T04:05:40.673Z,44.00
2022-10-19T04:06:44.974Z,43.65
2022-10-19T04:07:46.525Z,43.94
2022-10-19T04:08:49.356Z,43.78
2022-10-19T04:09:50.877Z,43.71
2022-10-19T04:10:52.621Z,43.63
2022-10-19T04:11:54.263Z,43.85
2022-10-19T04:12:55.808Z,43.48
2022-10-19T04:13:58.583Z,43.84
2022-10-19T04:15:00.241Z,43.49
2022-10-19T04:16:02.573Z,43.76
2022-10-19T04:17:04.589Z,43.54
2022-10-19T04:18:06.148Z,43.89
2022-10-19T04:19:08.552Z,43.93
2022-10-19T04:20:10.480Z,43.91
2022-10-19T04:21:21.150Z,43.71
2022-10-19T04:22:22.711Z,43.79
2022-10-19T04:23:26.896Z,43.65
2022-10-19T04:24:28.960Z,43.69
2022-10-19T04:25:30.489Z,43.86
2022-10-19T04:26:33.410Z,43.58
2022-10-19T04:27:35.221Z,43.59
2022-10-19T04:28:37.124Z,43.43
2022-10-19T04:29:38.707Z,43.66
2022-10-19T04:30:40.215Z,43.54
2022-10-19T04:31:41.942Z,43.53
2022-10-19T04:32:43.447Z,43.53
2022-10-19T04:34:51.530Z,43.80
2022-10-19T04:36:01.810Z,43.57
2022-10-19T04:37:03.418Z,43.58
2022-10-19T04:38:04.947Z,43.49
2022-10-19T04:39:07.108Z,43.64
2022-10-19T04:40:14.166Z,43.80
2022-10-19T04:41:19.199Z,43.76
2022-10-19T04:42:20.765Z,43.72
2022-10-19T04:43:22.805Z,43.55
2022-10-19T04:45:31.422Z,43.54
2022-10-19T04:46:33.399Z,43.73
2022-10-19T04:47:35.111Z,43.52
2022-10-19T04:48:38.804Z,43.72
2022-10-19T04:49:40.315Z,43.76
2022-10-19T04:50:41.879Z,43.64
2022-10-19T04:51:43.466Z,43.35
2022-10-19T04:52:45.680Z,43.57
2022-10-19T04:53:48.072Z,43.32
2022-10-19T04:54:49.565Z,43.23
2022-10-19T04:55:51.143Z,43.24
2022-10-19T04:56:53.923Z,43.27
2022-10-19T04:57:55.549Z,43.29
2022-10-19T04:58:58.682Z,43.39
2022-10-19T05:00:00.185Z,43.36
2022-10-19T05:01:13.325Z,43.46
2022-10-19T05:02:15.012Z,43.42
2022-10-19T05:03:17.558Z,43.53
2022-10-19T05:04:19.124Z,43.35
2022-10-19T05:05:20.640Z,43.58
2022-10-19T05:06:22.135Z,43.63
2022-10-19T05:07:23.752Z,43.38
2022-10-19T05:08:25.286Z,43.70
2022-10-19T05:09:26.799Z,43.67
2022-10-19T05:10:28.451Z,43.73
2022-10-19T05:11:30.006Z,43.61
2022-10-19T05:12:31.548Z,43.38
2022-10-19T05:13:33.587Z,43.30
2022-10-19T05:14:36.793Z,43.43
2022-10-19T05:15:40.650Z,43.68
2022-10-19T05:16:42.207Z,43.39
2022-10-19T05:17:43.889Z,43.45
2022-10-19T05:18:50.876Z,43.46
2022-10-19T05:19:52.450Z,43.75
2022-10-19T05:21:10.802Z,43.37
2022-10-19T05:22:12.382Z,43.51
2022-10-19T05:23:13.906Z,43.43
2022-10-19T05:24:15.485Z,43.57
2022-10-19T05:25:17.461Z,43.31
2022-10-19T05:26:21.395Z,43.23
2022-10-19T05:27:23.045Z,43.53
2022-10-19T05:28:24.566Z,43.39
2022-10-19T05:29:26.110Z,43.07
2022-10-19T05:30:27.677Z,43.16
2022-10-19T05:31:31.541Z,42.92
2022-10-19T05:32:33.112Z,43.20
2022-10-19T05:33:34.732Z,42.80
2022-10-19T05:34:36.239Z,43.11
2022-10-19T05:35:37.745Z,43.05
2022-10-19T05:36:40.830Z,42.79
2022-10-19T05:37:42.427Z,43.12
2022-10-19T05:38:45.951Z,42.94
2022-10-19T05:39:47.671Z,43.13
2022-10-19T05:40:52.958Z,43.04
2022-10-19T05:41:55.355Z,42.84
2022-10-19T05:42:56.951Z,43.07
2022-10-19T05:44:01.023Z,42.72
2022-10-19T05:45:02.547Z,42.81
2022-10-19T05:46:06.039Z,42.79
2022-10-19T05:47:07.638Z,43.12
2022-10-19T05:48:09.210Z,43.17
2022-10-19T05:49:12.182Z,43.12
2022-10-19T05:50:13.703Z,43.10
2022-10-19T05:51:18.221Z,42.91
2022-10-19T05:52:19.760Z,43.19
2022-10-19T05:53:21.493Z,43.02
2022-10-19T05:54:26.310Z,43.14
2022-10-19T05:55:29.947Z,43.17
2022-10-19T05:56:32.537Z,42.81
2022-10-19T05:57:34.319Z,43.04
2022-10-19T05:58:36.101Z,42.99
2022-10-19T05:59:37.687Z,43.14
2022-10-19T06:00:39.737Z,43.11
2022-10-19T06:01:41.374Z,42.94
2022-10-19T06:02:42.914Z,42.96
2022-10-19T06:03:45.123Z,43.23
2022-10-19T06:04:46.658Z,42.91
2022-10-19T06:05:52.764Z,43.39
2022-10-19T06:06:54.317Z,43.23
2022-10-19T06:07:55.869Z,43.21
2022-10-19T06:08:59.022Z,42.88
2022-10-19T06:10:00.566Z,43.23
2022-10-19T06:11:13.644Z,43.03
2022-10-19T06:12:16.346Z,42.92
2022-10-19T06:13:20.061Z,43.17
2022-10-19T06:14:21.589Z,43.15
2022-10-19T06:15:23.112Z,43.30
2022-10-19T06:16:26.834Z,43.28
2022-10-19T06:17:29.108Z,43.33
2022-10-19T06:18:30.778Z,43.09
2022-10-19T06:19:32.425Z,43.34
2022-10-19T06:20:38.049Z,43.04
2022-10-19T06:21:41.981Z,42.88
2022-10-19T06:22:46.476Z,43.06
2022-10-19T06:23:52.738Z,43.22
2022-10-19T06:24:54.334Z,43.17
2022-10-19T06:25:55.904Z,43.33
2022-10-19T06:26:57.459Z,43.27
2022-10-19T06:27:59.805Z,42.99
2022-10-19T06:29:02.460Z,43.06
2022-10-19T06:30:04.408Z,42.97
2022-10-19T06:31:08.499Z,42.91
2022-10-19T06:32:11.101Z,43.25
2022-10-19T06:33:12.642Z,42.98
2022-10-19T06:34:14.289Z,42.95
2022-10-19T06:35:16.205Z,43.06
2022-10-19T06:36:20.403Z,43.25
2022-10-19T06:37:21.939Z,43.25
2022-10-19T06:38:23.455Z,43.04
2022-10-19T06:39:25.006Z,42.93
2022-10-19T06:40:26.634Z,42.95
2022-10-19T06:41:29.377Z,43.36
2022-10-19T06:42:30.890Z,43.28
2022-10-19T06:43:32.975Z,43.34
2022-10-19T06:44:34.539Z,43.24
2022-10-19T06:45:39.108Z,42.95
2022-10-19T06:46:40.672Z,43.36
2022-10-19T06:48:58.844Z,42.95
2022-10-19T06:50:00.698Z,42.98
2022-10-19T06:51:06.398Z,42.85
2022-10-19T06:52:08.249Z,43.28
2022-10-19T06:53:10.149Z,43.12
2022-10-19T06:54:11.758Z,43.29
2022-10-19T06:55:13.385Z,43.22
2022-10-19T06:56:15.030Z,42.92
2022-10-19T06:57:16.576Z,43.23
2022-10-19T06:58:18.221Z,43.12
2022-10-19T06:59:19.813Z,43.04
2022-10-19T07:00:21.337Z,43.22
2022-10-19T07:01:23.083Z,43.25
2022-10-19T07:02:24.681Z,43.22
2022-10-19T07:03:28.099Z,43.18
2022-10-19T07:04:29.629Z,43.26
2022-10-19T07:05:31.164Z,43.19
2022-10-19T07:06:32.750Z,42.83
2022-10-19T07:07:34.957Z,43.22
2022-10-19T07:08:38.894Z,43.14
2022-10-19T07:09:40.469Z,42.91
2022-10-19T07:10:42.002Z,43.01
2022-10-19T07:11:46.068Z,42.95
2022-10-19T07:12:47.850Z,42.93
2022-10-19T07:13:49.498Z,43.23
2022-10-19T07:14:51.186Z,43.25
2022-10-19T07:16:02.699Z,43.37
2022-10-19T07:17:07.949Z,43.28
2022-10-19T07:18:09.471Z,43.27
2022-10-19T07:19:11.749Z,43.05
2022-10-19T07:20:13.269Z,43.08
2022-10-19T07:21:16.349Z,42.99
2022-10-19T07:22:22.206Z,42.91
2022-10-19T07:23:28.769Z,43.06
2022-10-19T07:24:30.330Z,43.03
2022-10-19T07:25:31.977Z,43.29
2022-10-19T07:26:33.877Z,43.18
2022-10-19T07:27:37.816Z,42.88
2022-10-19T07:28:40.878Z,43.24
2022-10-19T07:29:42.527Z,43.00
2022-10-19T07:30:44.044Z,43.15
2022-10-19T07:31:45.605Z,43.26
2022-10-19T07:32:47.303Z,42.88
2022-10-19T07:33:53.788Z,43.27
2022-10-19T07:34:55.423Z,42.94
2022-10-19T07:36:01.725Z,43.14
2022-10-19T07:37:03.353Z,42.78
2022-10-19T07:38:04.926Z,42.81
2022-10-19T07:39:07.897Z,43.12
2022-10-19T07:40:10.161Z,42.85
2022-10-19T07:41:14.717Z,42.79
2022-10-19T07:42:16.361Z,43.06
2022-10-19T07:43:17.982Z,43.13
2022-10-19T07:44:19.529Z,43.10
2022-10-19T07:45:21.807Z,43.02
2022-10-19T07:46:26.254Z,43.17
2022-10-19T07:47:27.826Z,42.88
2022-10-19T07:48:29.835Z,42.94
2022-10-19T07:49:31.375Z,43.12
2022-10-19T07:50:32.911Z,42.89
2022-10-19T07:51:34.481Z,42.92
2022-10-19T07:52:37.055Z,42.76
2022-10-19T07:53:39.612Z,42.81
2022-10-19T07:54:41.326Z,42.74
2022-10-19T07:55:43.341Z,43.07
2022-10-19T07:56:44.871Z,43.00
2022-10-19T07:57:50.254Z,43.09
2022-10-19T07:58:54.025Z,42.87
2022-10-19T07:59:55.602Z,42.99
2022-10-19T08:01:02.382Z,42.80
2022-10-19T08:02:05.026Z,42.96
2022-10-19T08:04:59.415Z,42.66
2022-10-19T08:05:49.689Z,43.04
2022-10-19T08:06:51.264Z,43.02
2022-10-19T08:07:52.810Z,42.87
2022-10-19T08:08:55.511Z,43.01
2022-10-19T08:09:57.131Z,42.72
2022-10-19T08:11:06.043Z,43.03
2022-10-19T08:12:11.159Z,42.96
2022-10-19T08:13:15.468Z,42.87
2022-10-19T08:14:17.070Z,43.02
2022-10-19T08:15:18.825Z,42.96
2022-10-19T08:16:41.659Z,43.04
2022-10-19T08:17:43.409Z,42.96
2022-10-19T08:18:44.962Z,42.81
2022-10-19T08:19:47.050Z,42.71
2022-10-19T08:20:49.915Z,42.88
2022-10-19T08:21:51.459Z,42.83
2022-10-19T08:22:56.489Z,42.99
2022-10-19T08:24:00.902Z,42.65
2022-10-19T08:25:02.543Z,42.66
2022-10-19T08:26:04.125Z,42.40
2022-10-19T08:27:05.731Z,42.47
2022-10-19T08:28:07.303Z,42.63
2022-10-19T08:29:13.085Z,42.99
2022-10-19T08:30:14.657Z,42.58
2022-10-19T08:31:19.394Z,42.86
2022-10-19T08:32:21.033Z,42.75
2022-10-19T08:33:22.592Z,42.72
2022-10-19T08:34:24.315Z,42.89
2022-10-19T08:35:25.860Z,42.59
2022-10-19T08:36:31.245Z,42.94
2022-10-19T08:37:44.053Z,42.63
2022-10-19T08:38:48.455Z,42.82
2022-10-19T08:39:49.989Z,42.63
2022-10-19T08:40:51.569Z,42.95
2022-10-19T08:42:03.688Z,42.54
2022-10-19T08:43:26.674Z,42.91
2022-10-19T08:45:00.861Z,42.96
2022-10-19T08:46:24.842Z,42.97
2022-10-19T08:47:41.774Z,42.91
2022-10-19T08:48:43.747Z,42.83
2022-10-19T08:49:46.866Z,42.73
2022-10-19T08:50:48.845Z,43.15
2022-10-19T08:51:57.673Z,43.01
2022-10-19T08:53:03.775Z,42.85
2022-10-19T08:54:12.989Z,43.05
2022-10-19T08:55:20.694Z,42.70
2022-10-19T08:56:50.623Z,42.91
2022-10-19T08:57:58.155Z,42.69
2022-10-19T08:59:29.117Z,42.74
2022-10-19T09:00:42.694Z,42.69
2022-10-19T09:01:54.380Z,43.02
2022-10-19T09:03:11.270Z,43.00
2022-10-19T09:04:36.571Z,43.07
2022-10-19T09:05:45.654Z,42.83
2022-10-19T09:07:17.082Z,42.98
2022-10-19T09:08:19.867Z,42.86
2022-10-19T09:09:21.458Z,42.87
2022-10-19T09:10:28.705Z,42.82
2022-10-19T09:11:36.832Z,43.12
2022-10-19T09:12:47.981Z,42.88
2022-10-19T09:14:04.829Z,42.88
2022-10-19T09:15:31.914Z,42.88
2022-10-19T09:16:35.023Z,42.78
2022-10-19T09:17:36.744Z,42.88
2022-10-19T09:18:38.642Z,42.90
2022-10-19T09:19:40.276Z,42.77
2022-10-19T09:20:45.762Z,43.08
2022-10-19T09:21:51.606Z,42.80
2022-10-19T09:23:03.797Z,42.94
2022-10-19T09:24:09.737Z,43.05
2022-10-19T09:25:20.052Z,43.06
2022-10-19T09:26:25.604Z,42.99
2022-10-19T09:27:35.591Z,42.99
2022-10-19T09:28:39.785Z,42.70
2022-10-19T09:29:48.039Z,42.89
2022-10-19T09:30:52.227Z,42.80
2022-10-19T09:31:59.795Z,43.02
2022-10-19T09:33:02.320Z,42.69
2022-10-19T09:34:12.914Z,42.71
2022-10-19T09:35:31.399Z,42.74
2022-10-19T09:36:50.761Z,42.78
2022-10-19T09:37:53.543Z,42.92
2022-10-19T09:38:55.094Z,42.74
2022-10-19T09:39:56.873Z,43.13
2022-10-19T09:41:07.538Z,42.77
2022-10-19T09:42:24.553Z,42.74
2022-10-19T09:43:28.223Z,43.11
2022-10-19T09:44:30.909Z,42.91
2022-10-19T09:45:47.873Z,42.97
2022-10-19T09:47:17.470Z,43.07
2022-10-19T09:48:38.142Z,43.21
2022-10-19T09:49:45.169Z,42.80
2022-10-19T09:50:55.469Z,42.86
2022-10-19T09:51:56.992Z,42.72
2022-10-19T09:53:02.755Z,42.77
2022-10-19T09:54:04.308Z,42.74
2022-10-19T09:55:28.342Z,43.15
2022-10-19T09:56:29.888Z,43.10
2022-10-19T09:57:31.936Z,43.07
2022-10-19T09:58:35.229Z,42.79
2022-10-19T09:59:37.337Z,43.08
2022-10-19T10:00:45.117Z,43.07
2022-10-19T10:01:46.690Z,42.85
2022-10-19T10:02:55.757Z,43.20
2022-10-19T10:04:18.274Z,42.98
2022-10-19T10:05:20.634Z,42.75
2022-10-19T10:06:22.586Z,42.70
2022-10-19T10:07:33.053Z,43.17
2022-10-19T10:08:38.718Z,42.89
2022-10-19T10:09:43.388Z,43.04
2022-10-19T10:10:47.676Z,43.14
2022-10-19T10:11:51.359Z,42.81
2022-10-19T10:12:53.878Z,42.83
2022-10-19T10:13:57.624Z,42.71
2022-10-19T10:14:59.302Z,42.69
2022-10-19T10:16:03.995Z,42.74
2022-10-19T10:17:16.789Z,43.08
2022-10-19T10:18:19.336Z,42.71
2022-10-19T10:19:27.268Z,43.04
2022-10-19T10:20:32.481Z,42.75
2022-10-19T10:21:45.238Z,43.08
2022-10-19T10:23:22.917Z,42.98
2022-10-19T10:24:32.075Z,42.57
2022-10-19T10:25:36.343Z,42.63
2022-10-19T10:26:41.256Z,42.95
2022-10-19T10:27:42.794Z,42.94
2022-10-19T10:28:49.822Z,42.90
2022-10-19T10:31:06.253Z,42.82
2022-10-19T10:32:21.574Z,42.87
2022-10-19T10:33:40.695Z,42.99
2022-10-19T10:35:01.233Z,43.08
2022-10-19T10:36:09.912Z,43.02
2022-10-19T10:37:20.341Z,43.09
2022-10-19T10:38:26.490Z,42.78
2022-10-19T10:39:29.181Z,42.91
2022-10-19T10:40:31.568Z,43.03
2022-10-19T10:41:43.388Z,43.04
2022-10-19T10:42:47.624Z,42.76
2022-10-19T10:44:06.637Z,42.96
2022-10-19T10:45:22.184Z,42.76
2022-10-19T10:46:28.761Z,42.98
2022-10-19T10:47:30.984Z,42.91
2022-10-19T10:48:40.933Z,43.03
2022-10-19T10:49:43.294Z,43.18
2022-10-19T10:50:45.245Z,42.99
2022-10-19T10:51:53.040Z,42.89
2022-10-19T10:53:07.016Z,42.93
2022-10-19T10:54:17.679Z,42.99
2022-10-19T10:55:19.397Z,43.18
2022-10-19T10:56:27.649Z,43.07
2022-10-19T10:57:36.045Z,43.08
2022-10-19T10:59:10.189Z,43.25
2022-10-19T11:00:19.096Z,42.80
2022-10-19T11:01:23.747Z,43.09
2022-10-19T11:03:29.222Z,42.91
2022-10-19T11:04:37.050Z,43.16
2022-10-19T11:05:43.107Z,43.19
2022-10-19T11:06:54.835Z,43.23
2022-10-19T11:08:33.623Z,43.04
2022-10-19T11:09:42.211Z,42.70
2022-10-19T11:10:51.251Z,42.80
2022-10-19T11:11:56.139Z,43.14
2022-10-19T11:13:23.635Z,42.82
2022-10-19T11:14:46.906Z,43.13
2022-10-19T11:15:56.078Z,42.79
2022-10-19T11:17:06.001Z,42.74
2022-10-19T11:18:10.329Z,42.75
2022-10-19T11:19:17.758Z,42.74
2022-10-19T11:20:19.593Z,43.13
2022-10-19T11:21:39.202Z,43.08
2022-10-19T11:22:43.690Z,43.16
2022-10-19T11:24:00.215Z,42.84
2022-10-19T11:25:32.827Z,42.87
2022-10-19T11:26:50.490Z,42.87
2022-10-19T11:28:21.197Z,42.88
2022-10-19T11:30:00.407Z,43.14
2022-10-19T11:31:19.194Z,43.06
2022-10-19T11:32:50.095Z,42.80
2022-10-19T11:34:00.350Z,42.62
2022-10-19T11:35:20.156Z,42.69
2022-10-19T11:36:49.034Z,42.79
2022-10-19T11:38:24.166Z,43.09
2022-10-19T11:39:40.752Z,42.71
2022-10-19T11:41:23.860Z,43.04
2022-10-19T11:42:34.396Z,43.02
2022-10-19T11:43:57.801Z,42.82
2022-10-19T11:45:32.111Z,43.12
2022-10-19T11:47:06.405Z,42.81
2022-10-19T11:48:43.773Z,42.94
2022-10-19T11:50:22.694Z,42.92
2022-10-19T11:51:43.068Z,42.91
2022-10-19T11:52:50.444Z,42.79
2022-10-19T11:54:01.441Z,42.59
2022-10-19T11:55:08.745Z,42.48
2022-10-19T11:56:17.400Z,42.47
2022-10-19T11:57:27.593Z,42.67
2022-10-19T11:58:42.230Z,42.83
2022-10-19T12:00:14.535Z,42.64
2022-10-19T12:01:40.364Z,42.64
2022-10-19T12:02:50.878Z,42.69
2022-10-19T12:04:23.394Z,42.56
2022-10-19T12:05:30.874Z,42.56
2022-10-19T12:06:35.448Z,42.53
2022-10-19T12:08:02.927Z,42.52
2022-10-19T12:09:12.096Z,42.87
2022-10-19T12:10:25.615Z,42.95
2022-10-19T12:11:45.691Z,42.95
2022-10-19T12:12:55.401Z,42.78
2022-10-19T12:14:09.290Z,42.61
2022-10-19T12:15:23.643Z,42.97
2022-10-19T12:16:35.972Z,42.98
2022-10-19T12:17:39.452Z,42.55
2022-10-19T12:18:48.822Z,42.88
2022-10-19T12:19:55.665Z,42.85
2022-10-19T12:21:01.310Z,42.59
2022-10-19T12:22:07.023Z,42.95
2022-10-19T12:23:23.602Z,42.71
2022-10-19T12:24:26.398Z,42.61
2022-10-19T12:25:28.582Z,42.64
2022-10-19T12:26:35.558Z,43.04
2022-10-19T12:27:40.085Z,42.80
2022-10-19T12:28:47.482Z,42.92
2022-10-19T12:29:50.063Z,42.68
2022-10-19T12:30:53.313Z,42.63
2022-10-19T12:31:57.271Z,42.73
2022-10-19T12:33:28.167Z,42.78
2022-10-19T12:34:51.209Z,42.67
2022-10-19T12:36:04.343Z,42.61
2022-10-19T12:37:39.829Z,43.01
2022-10-19T12:39:06.297Z,42.77
2022-10-19T12:40:23.562Z,42.96
2022-10-19T12:42:04.085Z,42.63
2022-10-19T12:43:28.005Z,42.92
2022-10-19T12:44:53.758Z,42.75
2022-10-19T12:46:49.905Z,42.80
2022-10-19T12:48:14.446Z,43.05
2022-10-19T12:49:31.133Z,43.12
2022-10-19T12:50:56.725Z,42.76
2022-10-19T12:51:59.894Z,42.92
2022-10-19T12:53:01.476Z,43.00
2022-10-19T12:54:09.631Z,42.75
2022-10-19T12:55:34.790Z,42.99
2022-10-19T12:56:48.631Z,43.03
2022-10-19T12:57:59.426Z,42.96
2022-10-19T12:59:01.853Z,42.90
2022-10-19T13:00:20.274Z,43.10
2022-10-19T13:01:29.639Z,42.77
2022-10-19T13:02:35.371Z,43.14
2022-10-19T13:03:40.573Z,42.91
2022-10-19T13:04:53.341Z,42.81
2022-10-19T13:06:00.845Z,43.01
2022-10-19T13:07:10.929Z,42.83
2022-10-19T13:08:28.633Z,42.85
2022-10-19T13:09:31.805Z,43.06
2022-10-19T13:10:33.916Z,43.14
2022-10-19T13:11:38.359Z,42.91
2022-10-19T13:12:46.302Z,42.77
2022-10-19T13:14:02.741Z,42.81
2022-10-19T13:15:05.116Z,42.79
2022-10-19T13:16:29.143Z,42.91
2022-10-19T13:17:36.726Z,42.75
2022-10-19T13:19:00.535Z,42.94
2022-10-19T13:20:14.457Z,42.74
2022-10-19T13:21:47.748Z,42.90
2022-10-19T13:23:09.490Z,42.76
2022-10-19T13:24:28.140Z,42.92
2022-10-19T13:25:31.735Z,42.70
2022-10-19T13:26:35.489Z,42.74
2022-10-19T13:27:39.509Z,43.05
2022-10-19T13:28:53.463Z,43.03
2022-10-19T13:29:55.036Z,42.82
2022-10-19T13:31:07.071Z,42.75
2022-10-19T13:32:41.062Z,43.18
2022-10-19T13:33:48.372Z,42.99
2022-10-19T13:34:49.958Z,42.94
2022-10-19T13:36:00.766Z,43.10
2022-10-19T13:37:03.838Z,42.85
2022-10-19T13:38:21.931Z,42.90
2022-10-19T13:39:28.377Z,42.93
2022-10-19T13:40:38.549Z,43.02
2022-10-19T13:41:47.119Z,42.63
2022-10-19T13:42:58.540Z,42.63
2022-10-19T13:44:06.850Z,42.96
2022-10-19T13:45:21.761Z,43.03
2022-10-19T13:46:41.170Z,42.79
2022-10-19T13:47:47.580Z,42.84
2022-10-19T13:49:27.875Z,42.68
2022-10-19T13:50:54.266Z,42.67
2022-10-19T13:52:26.678Z,42.72
2022-10-19T13:54:03.519Z,42.90
2022-10-19T13:55:16.910Z,42.85
2022-10-19T13:56:31.085Z,42.86
2022-10-19T13:58:02.667Z,42.80
2022-10-19T14:00:55.725Z,42.68
2022-10-19T14:02:34.367Z,43.10
2022-10-19T14:03:54.748Z,42.86
2022-10-19T14:05:05.485Z,42.85
2022-10-19T14:06:44.383Z,43.07
2022-10-19T14:08:06.119Z,42.91
2022-10-19T14:09:27.811Z,42.80
2022-10-19T14:10:33.119Z,43.04
2022-10-19T14:11:48.328Z,43.04
2022-10-19T14:12:51.030Z,43.05
2022-10-19T14:14:13.719Z,43.28
2022-10-19T14:15:49.828Z,43.30
2022-10-19T14:16:58.435Z,43.28
2022-10-19T14:18:05.813Z,43.34
2022-10-19T14:19:13.427Z,43.06
2022-10-19T14:20:39.001Z,42.98
2022-10-19T14:21:41.231Z,42.84
2022-10-19T14:22:42.774Z,43.28
2022-10-19T14:23:44.383Z,42.84
2022-10-19T14:24:45.960Z,42.94
2022-10-19T14:25:57.137Z,42.80
2022-10-19T14:27:07.675Z,42.95
2022-10-19T14:28:09.209Z,42.71
2022-10-19T14:29:12.859Z,43.15
2022-10-19T14:30:27.466Z,42.95
2022-10-19T14:31:35.397Z,42.88
2022-10-19T14:32:37.038Z,43.16
2022-10-19T14:33:41.201Z,42.80
2022-10-19T14:34:45.253Z,42.82
2022-10-19T14:35:50.109Z,43.12
2022-10-19T14:36:51.792Z,43.07
2022-10-19T14:37:53.470Z,43.12